createdAt,value
2023-10-23T00:01:21.612Z,100534.63
2023-10-23T00:03:52.048Z,100539.13
2023-10-23T00:06:22.426Z,100534.88
2023-10-23T00:08:52.622Z,100522.31
2023-10-23T00:11:29.729Z,100533.59
2023-10-23T00:13:59.928Z,100537.28
2023-10-23T00:16:30.117Z,100540.97
2023-10-23T00:19:00.341Z,100545.59
2023-10-23T00:21:31.146Z,100536.91
2023-10-23T00:24:01.368Z,100537.09
2023-10-23T00:26:34.221Z,100540.78
2023-10-23T00:29:04.751Z,100549.78
2023-10-23T00:31:35.180Z,100556.13
2023-10-23T00:34:05.477Z,100543.53
2023-10-23T00:36:35.769Z,100556.50
2023-10-23T00:39:06.065Z,100575.16
2023-10-23T00:41:39.141Z,100567.38
2023-10-23T00:44:09.426Z,100559.97
2023-10-23T00:46:40.247Z,100565.94
2023-10-23T00:49:12.138Z,100569.63
2023-10-23T00:51:42.744Z,100567.91
2023-10-23T00:54:13.492Z,100567.16
2023-10-23T00:56:46.423Z,100575.19
2023-10-23T00:59:17.652Z,100564.78
2023-10-23T01:01:48.892Z,100556.19
2023-10-23T01:04:19.873Z,100576.50
2023-10-23T01:06:51.596Z,100573.22
2023-10-23T01:09:22.111Z,100557.88
2023-10-23T01:11:54.882Z,100566.38
2023-10-23T01:14:25.201Z,100572.72
2023-10-23T01:16:55.444Z,100576.28
2023-10-23T01:19:25.952Z,100567.69
2023-10-23T01:21:56.258Z,100570.34
2023-10-23T01:24:29.358Z,100573.06
2023-10-23T01:27:02.401Z,100566.09
2023-10-23T01:29:32.600Z,100568.81
2023-10-23T01:32:02.921Z,100567.13
2023-10-23T01:34:33.133Z,100568.16
2023-10-23T01:37:03.472Z,100573.53
2023-10-23T01:39:33.766Z,100569.56
2023-10-23T01:42:06.706Z,100579.97
2023-10-23T01:44:36.912Z,100581.81
2023-10-23T01:47:07.208Z,100577.50
2023-10-23T01:49:37.340Z,100586.28
2023-10-23T01:52:07.760Z,100581.06
2023-10-23T01:54:38.126Z,100578.53
2023-10-23T01:57:11.285Z,100590.03
2023-10-23T01:59:41.527Z,100591.94
2023-10-23T02:02:11.725Z,100584.06
2023-10-23T02:04:42.287Z,100592.97
2023-10-23T02:07:12.512Z,100576.34
2023-10-23T02:09:42.725Z,100590.59
2023-10-23T02:12:15.545Z,100590.69
2023-10-23T02:14:45.722Z,100574.41
2023-10-23T02:17:15.916Z,100597.94
2023-10-23T02:22:16.461Z,100607.75
2023-10-23T02:24:46.662Z,100607.84
2023-10-23T02:27:21.359Z,100605.28
2023-10-23T02:29:51.604Z,100610.69
2023-10-23T02:32:21.790Z,100615.13
2023-10-23T02:34:52.209Z,100614.34
2023-10-23T02:37:22.897Z,100616.13
2023-10-23T02:39:53.556Z,100621.53
2023-10-23T02:42:26.506Z,100619.91
2023-10-23T02:44:56.793Z,100615.56
2023-10-23T02:47:27.322Z,100613.84
2023-10-23T02:49:57.655Z,100615.72
2023-10-23T02:52:27.861Z,100611.38
2023-10-23T02:54:58.122Z,100618.38
2023-10-23T02:57:30.964Z,100614.13
2023-10-23T03:00:01.139Z,100612.41
2023-10-23T03:02:31.390Z,100622.16
2023-10-23T03:05:01.706Z,100611.63
2023-10-23T03:07:31.911Z,100618.72
2023-10-23T03:10:02.077Z,100612.59
2023-10-23T03:12:35.060Z,100615.31
2023-10-23T03:15:06.436Z,100621.63
2023-10-23T03:17:36.666Z,100623.41
2023-10-23T03:20:07.993Z,100634.00
2023-10-23T03:22:38.183Z,100628.03
2023-10-23T03:25:09.455Z,100632.31
2023-10-23T03:27:42.978Z,100631.50
2023-10-23T03:30:14.414Z,100634.16
2023-10-23T03:32:44.621Z,100635.13
2023-10-23T03:35:15.171Z,100640.41
2023-10-23T03:37:45.318Z,100643.13
2023-10-23T03:40:16.519Z,100648.41
2023-10-23T03:42:49.323Z,100647.59
2023-10-23T03:45:19.711Z,100643.22
2023-10-23T03:47:50.002Z,100643.28
2023-10-23T03:50:20.270Z,100650.38
2023-10-23T03:52:50.425Z,100646.78
2023-10-23T03:55:20.628Z,100642.47
2023-10-23T03:57:53.998Z,100641.66
2023-10-23T04:00:24.391Z,100634.88
2023-10-23T04:02:54.597Z,100642.63
2023-10-23T04:05:25.018Z,100643.56
2023-10-23T04:07:55.189Z,100634.75
2023-10-23T04:10:25.354Z,100641.88
2023-10-23T04:12:59.447Z,100648.06
2023-10-23T04:15:29.719Z,100645.59
2023-10-23T04:18:00.014Z,100649.97
2023-10-23T04:20:30.634Z,100651.75
2023-10-23T04:23:00.763Z,100651.75
2023-10-23T04:25:30.938Z,100639.00
2023-10-23T04:28:04.921Z,100653.63
2023-10-23T04:30:35.259Z,100643.88
2023-10-23T04:33:05.492Z,100647.44
2023-10-23T04:35:36.564Z,100652.75
2023-10-23T04:38:06.686Z,100649.25
2023-10-23T04:40:36.937Z,100651.03
2023-10-23T04:43:09.716Z,100652.91
2023-10-23T04:45:40.022Z,100662.56
2023-10-23T04:48:10.841Z,100662.63
2023-10-23T04:50:42.518Z,100667.91
2023-10-23T04:53:12.692Z,100661.75
2023-10-23T04:55:44.005Z,100666.22
2023-10-23T04:58:16.882Z,100662.78
2023-10-23T05:00:47.166Z,100668.94
2023-10-23T05:03:17.412Z,100672.50
2023-10-23T05:05:52.756Z,100670.81
2023-10-23T05:08:22.932Z,100664.66
2023-10-23T05:10:53.118Z,100671.66
2023-10-23T05:13:26.795Z,100668.22
2023-10-23T05:15:57.019Z,100677.88
2023-10-23T05:18:27.298Z,100681.44
2023-10-23T05:20:57.524Z,100681.53
2023-10-23T05:23:27.807Z,100679.81
2023-10-23T05:25:57.949Z,100683.31
2023-10-23T05:28:30.848Z,100686.84
2023-10-23T05:31:01.105Z,100688.72
2023-10-23T05:33:31.301Z,100673.72
2023-10-23T05:36:09.846Z,100672.84
2023-10-23T05:38:40.604Z,100679.81
2023-10-23T05:41:11.496Z,100671.72
2023-10-23T05:43:45.556Z,100668.94
2023-10-23T05:46:16.875Z,100676.69
2023-10-23T05:48:47.187Z,100682.75
2023-10-23T05:51:17.385Z,100676.09
2023-10-23T05:53:47.786Z,100687.03
2023-10-23T05:56:18.015Z,100687.84
2023-10-23T05:58:52.291Z,100689.09
2023-10-23T06:01:22.717Z,100692.34
2023-10-23T06:03:54.546Z,100697.38
2023-10-23T06:06:25.050Z,100699.66
2023-10-23T06:08:55.443Z,100691.50
2023-10-23T06:11:25.733Z,100690.38
2023-10-23T06:13:58.630Z,100687.56
2023-10-23T06:16:28.904Z,100688.50
2023-10-23T06:18:59.351Z,100688.31
2023-10-23T06:21:29.601Z,100690.97
2023-10-23T06:24:00.104Z,100689.94
2023-10-23T06:26:31.823Z,100689.09
2023-10-23T06:29:04.888Z,100695.06
2023-10-23T06:31:35.106Z,100707.44
2023-10-23T06:34:05.624Z,100692.50
2023-10-23T06:36:36.960Z,100703.59
2023-10-23T06:39:07.455Z,100700.28
2023-10-23T06:41:37.725Z,100702.50
2023-10-23T06:44:11.217Z,100709.41
2023-10-23T06:46:42.168Z,100717.41
2023-10-23T06:49:12.603Z,100719.03
2023-10-23T06:51:43.157Z,100711.38
2023-10-23T06:54:13.535Z,100720.66
2023-10-23T06:56:43.998Z,100720.16
2023-10-23T06:59:16.922Z,100721.25
2023-10-23T07:01:47.449Z,100725.09
2023-10-23T07:04:18.091Z,100728.53
2023-10-23T07:06:48.893Z,100724.16
2023-10-23T07:09:20.516Z,100725.03
2023-10-23T07:11:51.925Z,100727.56
2023-10-23T07:14:25.377Z,100726.66
2023-10-23T07:16:56.308Z,100724.00
2023-10-23T07:19:26.977Z,100727.66
2023-10-23T07:21:57.671Z,100728.69
2023-10-23T07:24:28.177Z,100725.09
2023-10-23T07:26:58.829Z,100737.56
2023-10-23T07:29:33.662Z,100734.91
2023-10-23T07:32:05.289Z,100727.56
2023-10-23T07:34:35.810Z,100739.34
2023-10-23T07:37:07.025Z,100739.44
2023-10-23T07:39:37.971Z,100735.94
2023-10-23T07:42:09.863Z,100743.88
2023-10-23T07:44:43.340Z,100732.00
2023-10-23T07:47:13.956Z,100751.91
2023-10-23T07:49:44.459Z,100748.47
2023-10-23T07:52:15.188Z,100746.78
2023-10-23T07:54:45.866Z,100753.94
2023-10-23T07:57:16.543Z,100749.69
2023-10-23T07:59:50.501Z,100741.81
2023-10-23T08:02:21.958Z,100747.97
2023-10-23T08:04:52.923Z,100754.88
2023-10-23T08:07:23.340Z,100756.34
2023-10-23T08:09:54.184Z,100748.56
2023-10-23T08:12:24.904Z,100738.25
2023-10-23T08:14:58.705Z,100749.25
2023-10-23T08:17:41.484Z,100741.31
2023-10-23T08:20:13.682Z,100742.84
2023-10-23T08:22:44.087Z,100736.25
2023-10-23T08:25:14.567Z,100742.09
2023-10-23T08:27:45.241Z,100747.47
2023-10-23T08:30:18.628Z,100742.19
2023-10-23T08:32:52.845Z,100746.78
2023-10-23T08:35:27.111Z,100743.69
2023-10-23T08:37:57.583Z,100743.88
2023-10-23T08:40:28.164Z,100748.22
2023-10-23T08:42:58.738Z,100750.13
2023-10-23T08:45:32.137Z,100751.16
2023-10-23T08:48:02.673Z,100745.59
2023-10-23T08:50:34.910Z,100760.53
2023-10-23T08:53:11.580Z,100763.50
2023-10-23T08:55:42.400Z,100763.41
2023-10-23T08:58:17.734Z,100772.22
2023-10-23T09:00:51.622Z,100759.25
2023-10-23T09:04:04.119Z,100752.34
2023-10-23T09:06:15.132Z,100759.31
2023-10-23T09:08:45.941Z,100763.69
2023-10-23T09:11:17.687Z,100760.28
2023-10-23T09:13:48.507Z,100767.25
2023-10-23T09:16:21.730Z,100759.66
2023-10-23T09:18:54.852Z,100772.47
2023-10-23T09:21:25.632Z,100770.50
2023-10-23T09:23:57.852Z,100763.34
2023-10-23T09:26:28.762Z,100763.34
2023-10-23T09:28:59.422Z,100761.63
2023-10-23T09:31:33.135Z,100764.28
2023-10-23T09:34:05.549Z,100765.13
2023-10-23T09:36:37.021Z,100767.78
2023-10-23T09:39:08.170Z,100775.63
2023-10-23T09:41:39.205Z,100770.16
2023-10-23T09:44:11.563Z,100783.31
2023-10-23T09:46:45.613Z,100777.00
2023-10-23T09:49:16.199Z,100768.47
2023-10-23T09:51:52.735Z,100774.19
2023-10-23T09:54:24.040Z,100781.94
2023-10-23T09:56:56.694Z,100767.78
2023-10-23T09:59:31.731Z,100761.63
2023-10-23T10:02:07.483Z,100768.63
2023-10-23T10:04:47.095Z,100762.50
2023-10-23T10:07:26.128Z,100758.06
2023-10-23T10:09:57.837Z,100751.38
2023-10-23T10:12:30.304Z,100765.13
2023-10-23T10:15:01.821Z,100756.34
2023-10-23T10:17:37.234Z,100750.00
2023-10-23T10:20:09.654Z,100754.03
2023-10-23T10:22:42.785Z,100750.09
2023-10-23T10:25:14.647Z,100751.00
2023-10-23T10:27:45.109Z,100749.47
2023-10-23T10:30:43.757Z,100729.88
2023-10-23T10:34:18.385Z,100735.69
2023-10-23T10:36:16.557Z,100739.53
2023-10-23T10:39:07.360Z,100735.56
2023-10-23T10:41:39.615Z,100729.91
2023-10-23T10:44:14.949Z,100735.03
2023-10-23T10:46:48.968Z,100734.88
2023-10-23T10:49:25.826Z,100736.28
2023-10-23T10:51:56.615Z,100732.97
2023-10-23T10:54:27.299Z,100731.63
2023-10-23T10:56:58.209Z,100732.69
2023-10-23T10:59:31.253Z,100732.75
2023-10-23T11:02:01.749Z,100732.47
2023-10-23T11:04:38.568Z,100737.91
2023-10-23T11:07:12.018Z,100737.06
2023-10-23T11:09:43.088Z,100732.59
2023-10-23T11:12:13.477Z,100736.00
2023-10-23T11:14:44.429Z,100735.25
2023-10-23T11:17:15.553Z,100720.84
2023-10-23T11:19:48.668Z,100726.75
2023-10-23T11:22:23.397Z,100712.13
2023-10-23T11:24:54.308Z,100722.38
2023-10-23T11:27:25.106Z,100731.25
2023-10-23T11:29:56.505Z,100724.16
2023-10-23T11:32:27.130Z,100720.47
2023-10-23T11:35:05.355Z,100712.16
2023-10-23T11:37:42.241Z,100702.50
2023-10-23T11:40:15.136Z,100696.25
2023-10-23T11:42:47.647Z,100689.53
2023-10-23T11:45:19.584Z,100695.91
2023-10-23T11:47:50.366Z,100696.47
2023-10-23T11:50:24.168Z,100698.72
2023-10-23T11:52:54.511Z,100696.34
2023-10-23T11:55:25.487Z,100694.69
2023-10-23T11:57:56.505Z,100683.28
2023-10-23T12:00:28.840Z,100691.16
2023-10-23T12:02:59.800Z,100686.63
2023-10-23T12:05:32.623Z,100678.66
2023-10-23T12:08:04.983Z,100690.13
2023-10-23T12:10:39.690Z,100689.94
2023-10-23T12:13:10.785Z,100684.34
2023-10-23T12:15:41.188Z,100682.44
2023-10-23T12:18:11.947Z,100682.25
2023-10-23T12:20:45.274Z,100687.94
2023-10-23T12:23:16.010Z,100679.88
2023-10-23T12:25:46.385Z,100676.28
2023-10-23T12:28:16.831Z,100683.00
2023-10-23T12:30:47.270Z,100680.47
2023-10-23T12:33:22.665Z,100679.06
2023-10-23T12:35:58.550Z,100674.31
2023-10-23T12:38:29.878Z,100681.31
2023-10-23T12:41:01.308Z,100687.38
2023-10-23T12:43:31.883Z,100682.16
2023-10-23T12:46:02.460Z,100681.50
2023-10-23T12:48:33.061Z,100675.34
2023-10-23T12:51:06.069Z,100690.31
2023-10-23T12:53:36.324Z,100674.31
2023-10-23T12:56:06.734Z,100671.75
2023-10-23T12:58:37.588Z,100660.94
2023-10-23T13:01:08.523Z,100662.84
2023-10-23T13:03:39.050Z,100648.19
2023-10-23T13:06:12.441Z,100657.66
2023-10-23T13:08:44.659Z,100649.22
2023-10-23T13:11:15.066Z,100636.06
2023-10-23T13:13:45.735Z,100632.38
2023-10-23T13:16:16.294Z,100635.78
2023-10-23T13:18:53.226Z,100638.53
2023-10-23T13:21:33.123Z,100623.38
2023-10-23T13:24:06.539Z,100629.81
2023-10-23T13:26:39.016Z,100627.94
2023-10-23T13:29:09.992Z,100617.41
2023-10-23T13:31:40.623Z,100615.06
2023-10-23T13:34:11.360Z,100621.66
2023-10-23T13:36:45.645Z,100618.09
2023-10-23T13:39:17.522Z,100605.50
2023-10-23T13:41:48.107Z,100616.78
2023-10-23T13:44:18.883Z,100597.06
2023-10-23T13:46:49.352Z,100603.59
2023-10-23T13:49:20.048Z,100603.72
2023-10-23T13:51:53.500Z,100600.28
2023-10-23T13:54:25.285Z,100598.59
2023-10-23T13:56:55.800Z,100597.63
2023-10-23T13:59:26.961Z,100604.66
2023-10-23T14:01:57.470Z,100594.16
2023-10-23T14:04:28.359Z,100590.72
2023-10-23T14:07:01.816Z,100592.63
2023-10-23T14:09:42.372Z,100571.06
2023-10-23T14:12:16.407Z,100589.34
2023-10-23T14:14:47.096Z,100579.75
2023-10-23T14:17:17.532Z,100566.25
2023-10-23T14:19:49.198Z,100578.38
2023-10-23T14:22:22.619Z,100580.22
2023-10-23T14:24:53.050Z,100582.03
2023-10-23T14:27:23.531Z,100570.03
2023-10-23T14:29:53.870Z,100558.09
2023-10-23T14:32:24.571Z,100566.53
2023-10-23T14:34:55.578Z,100564.81
2023-10-23T14:37:29.013Z,100576.09
2023-10-23T14:39:59.739Z,100566.34
2023-10-23T14:42:30.416Z,100559.34
2023-10-23T14:45:02.004Z,100556.56
2023-10-23T14:47:32.527Z,100562.72
2023-10-23T14:50:05.125Z,100549.97
2023-10-23T14:52:38.354Z,100561.88
2023-10-23T14:55:10.339Z,100564.53
2023-10-23T14:57:40.872Z,100560.09
2023-10-23T15:00:13.630Z,100553.94
2023-10-23T15:02:44.096Z,100559.16
2023-10-23T15:05:14.584Z,100548.63
2023-10-23T15:07:47.601Z,100544.31
2023-10-23T15:10:21.713Z,100548.75
2023-10-23T15:12:52.605Z,100540.78
2023-10-23T15:15:25.620Z,100540.69
2023-10-23T15:17:56.306Z,100532.66
2023-10-23T15:20:30.864Z,100541.34
2023-10-23T15:23:04.661Z,100536.06
2023-10-23T15:25:35.494Z,100545.78
2023-10-23T15:28:06.714Z,100525.00
2023-10-23T15:30:37.640Z,100537.97
2023-10-23T15:33:09.486Z,100535.31
2023-10-23T15:35:40.090Z,100542.22
2023-10-23T15:38:13.169Z,100536.91
2023-10-23T15:40:43.936Z,100537.84
2023-10-23T15:43:14.531Z,100538.63
2023-10-23T15:45:47.163Z,100535.97
2023-10-23T15:48:17.546Z,100544.75
2023-10-23T15:50:48.079Z,100535.88
2023-10-23T15:53:21.673Z,100534.16
2023-10-23T15:55:52.139Z,100535.88
2023-10-23T15:58:24.005Z,100532.56
2023-10-23T16:00:55.382Z,100529.53
2023-10-23T16:03:26.127Z,100519.13
2023-10-23T16:05:56.901Z,100530.63
2023-10-23T16:08:29.969Z,100527.03
2023-10-23T16:11:00.437Z,100521.75
2023-10-23T16:13:38.282Z,100526.38
2023-10-23T16:16:14.555Z,100526.13
2023-10-23T16:18:47.984Z,100529.53
2023-10-23T16:21:18.465Z,100528.84
2023-10-23T16:23:51.999Z,100531.22
2023-10-23T16:26:22.680Z,100524.97
2023-10-23T16:28:53.510Z,100526.50
2023-10-23T16:31:24.075Z,100528.47
2023-10-23T16:33:54.526Z,100530.38
2023-10-23T16:36:25.290Z,100525.75
2023-10-23T16:38:58.373Z,100524.59
2023-10-23T16:41:28.684Z,100529.78
2023-10-23T16:43:59.160Z,100526.06
2023-10-23T16:46:29.767Z,100522.41
2023-10-23T16:49:00.215Z,100524.94
2023-10-23T16:51:30.696Z,100519.06
2023-10-23T16:54:03.873Z,100520.38
2023-10-23T16:56:34.269Z,100526.34
2023-10-23T16:59:05.345Z,100528.69
2023-10-23T17:01:37.052Z,100520.41
2023-10-23T17:04:07.887Z,100515.13
2023-10-23T17:06:40.099Z,100515.78
2023-10-23T17:09:13.922Z,100510.06
2023-10-23T17:11:45.641Z,100513.47
2023-10-23T17:14:16.273Z,100515.94
2023-10-23T17:16:46.939Z,100509.22
2023-10-23T17:19:19.008Z,100522.81
2023-10-23T17:21:49.407Z,100518.47
2023-10-23T17:24:22.457Z,100526.53
2023-10-23T17:26:52.897Z,100523.19
2023-10-23T17:29:25.483Z,100519.72
2023-10-23T17:31:56.592Z,100521.22
2023-10-23T17:34:30.469Z,100514.75
2023-10-23T17:37:01.445Z,100522.63
2023-10-23T17:39:38.733Z,100516.28
2023-10-23T17:42:09.988Z,100513.63
2023-10-23T17:44:40.189Z,100513.50
2023-10-23T17:47:10.598Z,100496.94
2023-10-23T17:49:41.292Z,100497.50
2023-10-23T17:52:11.806Z,100501.63
2023-10-23T17:54:46.679Z,100508.25
2023-10-23T17:57:21.138Z,100504.25
2023-10-23T17:59:51.555Z,100496.63
2023-10-23T18:02:22.407Z,100498.75
2023-10-23T18:04:53.225Z,100496.44
2023-10-23T18:07:23.934Z,100497.06
2023-10-23T18:09:56.982Z,100498.16
2023-10-23T18:12:38.038Z,100490.50
2023-10-23T18:15:10.604Z,100494.53
2023-10-23T18:17:41.733Z,100485.72
2023-10-23T18:20:13.563Z,100490.06
2023-10-23T18:22:44.465Z,100493.25
2023-10-23T18:25:17.403Z,100494.63
2023-10-23T18:27:48.067Z,100490.03
2023-10-23T18:30:18.776Z,100485.47
2023-10-23T18:32:49.330Z,100487.06
2023-10-23T18:35:19.991Z,100481.66
2023-10-23T18:37:50.502Z,100480.38
2023-10-23T18:40:23.700Z,100480.78
2023-10-23T18:43:01.780Z,100482.59
2023-10-23T18:45:32.856Z,100475.34
2023-10-23T18:48:05.361Z,100482.47
2023-10-23T18:50:36.475Z,100471.97
2023-10-23T18:53:07.958Z,100477.94
2023-10-23T18:55:41.137Z,100475.34
2023-10-23T18:58:12.601Z,100469.66
2023-10-23T19:00:43.140Z,100477.09
2023-10-23T19:03:14.175Z,100474.53
2023-10-23T19:05:45.337Z,100475.72
2023-10-23T19:08:17.380Z,100476.03
2023-10-23T19:10:51.217Z,100466.47
2023-10-23T19:13:22.024Z,100472.84
2023-10-23T19:16:03.794Z,100471.47
2023-10-23T19:18:35.770Z,100475.31
2023-10-23T19:21:10.625Z,100468.41
2023-10-23T19:23:42.916Z,100469.25
2023-10-23T19:26:19.439Z,100471.16
2023-10-23T19:28:50.528Z,100451.31
2023-10-23T19:31:27.488Z,100466.91
2023-10-23T19:34:01.097Z,100466.81
2023-10-23T19:36:37.633Z,100461.28
2023-10-23T19:39:12.419Z,100463.72
2023-10-23T19:41:52.529Z,100464.47
2023-10-23T19:44:24.487Z,100455.44
2023-10-23T19:46:56.320Z,100460.41
2023-10-23T19:49:29.609Z,100460.09
2023-10-23T19:52:02.058Z,100456.38
2023-10-23T19:54:37.594Z,100464.13
2023-10-23T19:57:16.650Z,100460.53
2023-10-23T19:59:48.033Z,100464.75
2023-10-23T20:02:22.399Z,100445.66
2023-10-23T20:04:54.878Z,100453.06
2023-10-23T20:07:26.251Z,100445.53
2023-10-23T20:09:58.031Z,100458.16
2023-10-23T20:12:34.729Z,100458.25
2023-10-23T20:15:05.859Z,100454.00
2023-10-23T20:17:36.461Z,100451.16
2023-10-23T20:20:08.561Z,100451.16
2023-10-23T20:22:41.264Z,100444.03
2023-10-23T20:25:14.859Z,100441.38
2023-10-23T20:27:48.453Z,100446.69
2023-10-23T20:30:22.104Z,100444.88
2023-10-23T20:32:54.033Z,100443.09
2023-10-23T20:35:25.770Z,100442.09
2023-10-23T20:38:00.810Z,100442.88
2023-10-23T20:40:34.275Z,100425.00
2023-10-23T20:43:08.796Z,100421.16
2023-10-23T20:45:42.963Z,100421.91
2023-10-23T20:48:15.918Z,100430.44
2023-10-23T20:50:47.281Z,100425.00
2023-10-23T20:53:18.915Z,100428.38
2023-10-23T20:55:53.217Z,100422.13
2023-10-23T20:58:28.350Z,100415.84
2023-10-23T21:01:01.490Z,100422.00
2023-10-23T21:03:33.074Z,100413.06
2023-10-23T21:06:05.959Z,100418.72
2023-10-23T21:08:39.317Z,100413.63
2023-10-23T21:11:10.373Z,100408.00
2023-10-23T21:13:43.273Z,100409.78
2023-10-23T21:16:14.140Z,100407.47
2023-10-23T21:18:44.907Z,100412.44
2023-10-23T21:21:15.859Z,100410.44
2023-10-23T21:23:46.650Z,100398.75
2023-10-23T21:26:17.950Z,100396.72
2023-10-23T21:28:51.218Z,100392.75
2023-10-23T21:31:22.117Z,100389.78
2023-10-23T21:33:52.641Z,100386.66
2023-10-23T21:36:23.049Z,100385.34
2023-10-23T21:38:53.478Z,100386.28
2023-10-23T21:41:24.305Z,100382.19
2023-10-23T21:43:57.634Z,100377.22
2023-10-23T21:46:28.285Z,100375.69
2023-10-23T21:48:58.974Z,100378.00
2023-10-23T21:51:29.531Z,100374.25
2023-10-23T21:54:00.987Z,100367.25
2023-10-23T21:57:16.126Z,100373.31
2023-10-23T21:59:25.137Z,100372.81
2023-10-23T22:01:56.462Z,100372.22
2023-10-23T22:04:28.032Z,100376.69
2023-10-23T22:06:59.432Z,100363.50
2023-10-23T22:09:30.543Z,100371.59
2023-10-23T22:12:01.633Z,100375.22
2023-10-23T22:14:35.585Z,100365.53
2023-10-23T22:17:06.195Z,100363.13
2023-10-23T22:19:36.838Z,100363.25
2023-10-23T22:22:07.768Z,100364.06
2023-10-23T22:24:38.347Z,100361.66
2023-10-23T22:27:08.796Z,100362.34
2023-10-23T22:29:42.118Z,100362.78
2023-10-23T22:32:13.115Z,100349.44
2023-10-23T22:34:43.286Z,100360.94
2023-10-23T22:38:00.338Z,100360.44
2023-10-23T22:40:04.963Z,100365.38
2023-10-23T22:42:35.655Z,100360.50
2023-10-23T22:45:09.831Z,100366.94
2023-10-23T22:47:40.162Z,100362.09
2023-10-23T22:50:12.102Z,100354.06
2023-10-23T22:52:43.346Z,100362.97
2023-10-23T22:55:15.766Z,100359.81
2023-10-23T22:57:49.804Z,100361.94
2023-10-23T23:00:23.889Z,100355.13
2023-10-23T23:02:55.661Z,100363.44
2023-10-23T23:05:26.576Z,100351.38
2023-10-23T23:08:02.209Z,100355.19
2023-10-23T23:10:33.607Z,100355.38
2023-10-23T23:13:05.171Z,100347.75
2023-10-23T23:15:38.909Z,100347.13
2023-10-23T23:18:11.498Z,100341.22
2023-10-23T23:20:44.814Z,100349.47
2023-10-23T23:23:15.146Z,100343.56
2023-10-23T23:25:45.737Z,100347.38
2023-10-23T23:28:17.403Z,100349.50
2023-10-23T23:30:50.460Z,100340.38
2023-10-23T23:33:20.792Z,100354.28
2023-10-23T23:35:54.110Z,100358.84
2023-10-23T23:38:24.423Z,100344.09
2023-10-23T23:40:56.159Z,100346.94
2023-10-23T23:43:26.544Z,100340.91
2023-10-23T23:46:02.447Z,100337.91
2023-10-23T23:48:32.835Z,100334.84
2023-10-23T23:51:03.262Z,100348.84
2023-10-23T23:53:33.552Z,100330.81
2023-10-23T23:56:03.968Z,100327.50
2023-10-23T23:58:34.241Z,100336.97
